Wetterdaten: Mittwoch, 06.04.2011
Datum Zeit Temp. A. Feuchte A. Luftdruck Regen Wind Richtung Richtung Sonnenschein UV Solar Windben
06.04.2011 00:00 10,1 C 78 % 1024,6 hPa 0,0 mm 6,4 km/h (2 Bft) W-SW 247 0 min 0 UV-I 0 W/m 17,7 km/h (3 Bft)
06.04.2011 00:10 10,1 C 78 % 1024,6 hPa 0,0 mm 4,8 km/h (1 Bft) SW 225 0 min 0 UV-I 0 W/m 14,5 km/h (3 Bft)
06.04.2011 00:20 10,1 C 77 % 1024,7 hPa 0,0 mm 4,8 km/h (1 Bft) SW 225 0 min 0 UV-I 0 W/m 17,7 km/h (3 Bft)
06.04.2011 00:30 10,2 C 77 % 1024,7 hPa 0,0 mm 4,8 km/h (1 Bft) W-SW 247 0 min 0 UV-I 0 W/m 17,7 km/h (3 Bft)
06.04.2011 00:40 10,2 C 77 % 1024,7 hPa 0,0 mm 4,8 km/h (1 Bft) W-SW 247 0 min 0 UV-I 0 W/m 16,1 km/h (3 Bft)
06.04.2011 00:50 10,2 C 77 % 1024,7 hPa 0,0 mm 4,8 km/h (1 Bft) SW 225 0 min 0 UV-I 0 W/m 11,3 km/h (2 Bft)
06.04.2011 01:00 10,2 C 77 % 1024,9 hPa 0,0 mm 3,2 km/h (1 Bft) W-SW 247 0 min 0 UV-I 0 W/m 17,7 km/h (3 Bft)
06.04.2011 01:10 10,2 C 77 % 1024,8 hPa 0,0 mm 4,8 km/h (1 Bft) SW 225 0 min 0 UV-I 0 W/m 16,1 km/h (3 Bft)
06.04.2011 01:20 10,2 C 77 % 1025,1 hPa 0,0 mm 4,8 km/h (1 Bft) W-SW 247 0 min 0 UV-I 0 W/m 16,1 km/h (3 Bft)
06.04.2011 01:30 10,2 C 78 % 1025,1 hPa 0,0 mm 8,0 km/h (2 Bft) W-SW 247 0 min 0 UV-I 0 W/m 22,5 km/h (4 Bft)
06.04.2011 01:40 10,2 C 78 % 1025,0 hPa 0,0 mm 6,4 km/h (2 Bft) W-SW 247 0 min 0 UV-I 0 W/m 17,7 km/h (3 Bft)
06.04.2011 01:50 10,2 C 79 % 1025,0 hPa 0,0 mm 8,0 km/h (2 Bft) W-SW 247 0 min 0 UV-I 0 W/m 19,3 km/h (3 Bft)
06.04.2011 02:00 10,2 C 80 % 1024,9 hPa 0,0 mm 6,4 km/h (2 Bft) W-SW 247 0 min 0 UV-I 0 W/m 20,9 km/h (4 Bft)
06.04.2011 02:10 10,2 C 80 % 1024,8 hPa 0,0 mm 6,4 km/h (2 Bft) W-SW 247 0 min 0 UV-I 0 W/m 17,7 km/h (3 Bft)
06.04.2011 02:20 10,2 C 80 % 1024,8 hPa 0,0 mm 6,4 km/h (2 Bft) W-SW 247 0 min 0 UV-I 0 W/m 19,3 km/h (3 Bft)
06.04.2011 02:30 10,2 C 81 % 1024,8 hPa 0,0 mm 6,4 km/h (2 Bft) W-SW 247 0 min 0 UV-I 0 W/m 17,7 km/h (3 Bft)
06.04.2011 02:40 10,2 C 81 % 1024,9 hPa 0,0 mm 4,8 km/h (1 Bft) W-SW 247 0 min 0 UV-I 0 W/m 16,1 km/h (3 Bft)
06.04.2011 02:50 10,2 C 81 % 1024,7 hPa 0,0 mm 3,2 km/h (1 Bft) W-SW 247 0 min 0 UV-I 0 W/m 9,7 km/h (2 Bft)
06.04.2011 03:00 10,2 C 82 % 1024,5 hPa 0,0 mm 3,2 km/h (1 Bft) W-SW 247 0 min 0 UV-I 0 W/m 8,0 km/h (2 Bft)
06.04.2011 03:10 10,2 C 82 % 1024,4 hPa 0,0 mm 3,2 km/h (1 Bft) W-SW 247 0 min 0 UV-I 0 W/m 11,3 km/h (2 Bft)
06.04.2011 03:20 10,2 C 82 % 1024,5 hPa 0,0 mm 1,6 km/h (1 Bft) W 270 0 min 0 UV-I 0 W/m 9,7 km/h (2 Bft)
06.04.2011 03:30 10,2 C 82 % 1024,3 hPa 0,0 mm 1,6 km/h (1 Bft) W-SW 247 0 min 0 UV-I 0 W/m 11,3 km/h (2 Bft)
06.04.2011 03:40 10,2 C 82 % 1024,6 hPa 0,0 mm 1,6 km/h (1 Bft) W-SW 247 0 min 0 UV-I 0 W/m 8,0 km/h (2 Bft)
06.04.2011 03:50 10,2 C 83 % 1024,5 hPa 0,0 mm 1,6 km/h (1 Bft) W-SW 247 0 min 0 UV-I 0 W/m 6,4 km/h (2 Bft)
06.04.2011 04:00 10,3 C 83 % 1024,6 hPa 0,0 mm 3,2 km/h (1 Bft) W-SW 247 0 min 0 UV-I 0 W/m 9,7 km/h (2 Bft)
06.04.2011 04:10 10,3 C 83 % 1024,6 hPa 0,0 mm 4,8 km/h (1 Bft) W-SW 247 0 min 0 UV-I 0 W/m 11,3 km/h (2 Bft)
06.04.2011 04:20 10,4 C 83 % 1024,6 hPa 0,0 mm 4,8 km/h (1 Bft) W-SW 247 0 min 0 UV-I 0 W/m 17,7 km/h (3 Bft)
06.04.2011 04:30 10,6 C 84 % 1024,4 hPa 0,0 mm 3,2 km/h (1 Bft) W-SW 247 0 min 0 UV-I 0 W/m 17,7 km/h (3 Bft)
06.04.2011 04:40 10,6 C 84 % 1024,3 hPa 0,0 mm 8,0 km/h (2 Bft) W-SW 247 0 min 0 UV-I 0 W/m 24,1 km/h (4 Bft)
06.04.2011 04:50 10,6 C 84 % 1024,3 hPa 0,0 mm 6,4 km/h (2 Bft) W-SW 247 0 min 0 UV-I 0 W/m 17,7 km/h (3 Bft)
06.04.2011 05:00 10,6 C 84 % 1024,1 hPa 0,0 mm 6,4 km/h (2 Bft) W-SW 247 0 min 0 UV-I 0 W/m 22,5 km/h (4 Bft)
06.04.2011 05:10 10,6 C 85 % 1024,2 hPa 0,0 mm 4,8 km/h (1 Bft) W-SW 247 0 min 0 UV-I 0 W/m 14,5 km/h (3 Bft)
06.04.2011 05:20 10,6 C 85 % 1024,2 hPa 0,0 mm 3,2 km/h (1 Bft) SW 225 0 min 0 UV-I 0 W/m 9,7 km/h (2 Bft)
06.04.2011 05:30 10,6 C 85 % 1024,4 hPa 0,0 mm 3,2 km/h (1 Bft) W-SW 247 0 min 0 UV-I 0 W/m 16,1 km/h (3 Bft)
06.04.2011 05:40 10,6 C 85 % 1024,3 hPa 0,0 mm 3,2 km/h (1 Bft) SW 225 0 min 0 UV-I 0 W/m 9,7 km/h (2 Bft)
06.04.2011 05:50 10,6 C 85 % 1024,3 hPa 0,0 mm 3,2 km/h (1 Bft) SW 225 0 min 0 UV-I 0 W/m 16,1 km/h (3 Bft)
06.04.2011 06:00 10,6 C 85 % 1024,2 hPa 0,0 mm 1,6 km/h (1 Bft) S-SW 202 0 min 0 UV-I 0 W/m 11,3 km/h (2 Bft)
06.04.2011 06:10 10,7 C 85 % 1024,3 hPa 0,0 mm 3,2 km/h (1 Bft) SW 225 0 min 0 UV-I 0 W/m 16,1 km/h (3 Bft)
06.04.2011 06:20 10,7 C 85 % 1024,3 hPa 0,0 mm 1,6 km/h (1 Bft) W-SW 247 0 min 0 UV-I 0 W/m 8,0 km/h (2 Bft)
06.04.2011 06:30 10,7 C 85 % 1024,5 hPa 0,0 mm 1,6 km/h (1 Bft) S-SW 202 0 min 0 UV-I 0 W/m 11,3 km/h (2 Bft)
06.04.2011 06:40 10,8 C 85 % 1024,6 hPa 0,0 mm 3,2 km/h (1 Bft) SW 225 0 min 0 UV-I 0 W/m 11,3 km/h (2 Bft)
06.04.2011 06:50 10,8 C 86 % 1024,6 hPa 0,0 mm 3,2 km/h (1 Bft) W-SW 247 0 min 0 UV-I 0 W/m 11,3 km/h (2 Bft)
06.04.2011 07:00 10,8 C 85 % 1024,8 hPa 0,0 mm 1,6 km/h (1 Bft) SW 225 0 min 0 UV-I 0 W/m 8,0 km/h (2 Bft)
06.04.2011 07:10 10,9 C 85 % 1024,9 hPa 0,0 mm 3,2 km/h (1 Bft) W-SW 247 0 min 0 UV-I 0 W/m 14,5 km/h (3 Bft)
06.04.2011 07:20 10,9 C 85 % 1024,8 hPa 0,0 mm 1,6 km/h (1 Bft) W-SW 247 0 min 0 UV-I 5 W/m 9,7 km/h (2 Bft)
06.04.2011 07:30 11,0 C 85 % 1024,9 hPa 0,0 mm 1,6 km/h (1 Bft) SW 225 0 min 0 UV-I 9 W/m 6,4 km/h (2 Bft)
06.04.2011 07:40 11,0 C 85 % 1025,0 hPa 0,0 mm 1,6 km/h (1 Bft) SW 225 0 min 0 UV-I 11 W/m 9,7 km/h (2 Bft)
06.04.2011 07:50 11,1 C 85 % 1025,2 hPa 0,0 mm 1,6 km/h (1 Bft) W 270 0 min 0 UV-I 16 W/m 8,0 km/h (2 Bft)
06.04.2011 08:00 11,2 C 84 % 1025,1 hPa 0,0 mm 2,2 km/h (1 Bft) S-SW 205 0 min 0 UV-I 26 W/m 9,7 km/h (2 Bft)
06.04.2011 08:10 11,2 C 84 % 1025,3 hPa 0,0 mm 4,8 km/h (1 Bft) W-SW 247 0 min 0 UV-I 35 W/m 14,5 km/h (3 Bft)
06.04.2011 08:20 11,4 C 84 % 1025,3 hPa 0,0 mm 3,2 km/h (1 Bft) SW 225 0 min 0 UV-I 56 W/m 14,5 km/h (3 Bft)
06.04.2011 08:30 11,5 C 84 % 1025,4 hPa 0,0 mm 1,6 km/h (1 Bft) SW 225 0 min 0 UV-I 53 W/m 8,0 km/h (2 Bft)
06.04.2011 08:40 11,6 C 84 % 1025,1 hPa 0,0 mm 1,6 km/h (1 Bft) SW 225 0 min 1 UV-I 83 W/m 9,7 km/h (2 Bft)
06.04.2011 08:50 11,7 C 84 % 1025,0 hPa 0,0 mm 3,2 km/h (1 Bft) SW 225 0 min 1 UV-I 97 W/m 11,3 km/h (2 Bft)
06.04.2011 09:00 11,8 C 83 % 1025,3 hPa 0,0 mm 3,2 km/h (1 Bft) W-SW 247 0 min 1 UV-I 97 W/m 11,3 km/h (2 Bft)
06.04.2011 09:10 12,0 C 83 % 1025,5 hPa 0,0 mm 3,2 km/h (1 Bft) W-SW 247 0 min 1 UV-I 90 W/m 14,5 km/h (3 Bft)
06.04.2011 09:20 12,1 C 82 % 1025,2 hPa 0,0 mm 4,8 km/h (1 Bft) W-SW 247 0 min 1 UV-I 109 W/m 19,3 km/h (3 Bft)
06.04.2011 09:30 12,2 C 82 % 1025,5 hPa 0,0 mm 6,4 km/h (2 Bft) W-SW 247 0 min 1 UV-I 111 W/m 19,3 km/h (3 Bft)
06.04.2011 09:40 12,4 C 82 % 1025,5 hPa 0,0 mm 4,8 km/h (1 Bft) W-SW 247 0 min 1 UV-I 95 W/m 17,7 km/h (3 Bft)
06.04.2011 09:50 12,4 C 83 % 1025,5 hPa 0,0 mm 6,4 km/h (2 Bft) W 270 0 min 1 UV-I 77 W/m 19,3 km/h (3 Bft)
06.04.2011 10:00 12,5 C 83 % 1025,9 hPa 0,0 mm 6,4 km/h (2 Bft) W-SW 247 0 min 1 UV-I 74 W/m 19,3 km/h (3 Bft)
06.04.2011 10:10 12,6 C 83 % 1026,0 hPa 0,0 mm 9,7 km/h (2 Bft) W 270 0 min 1 UV-I 79 W/m 20,9 km/h (4 Bft)
06.04.2011 10:20 12,6 C 84 % 1025,9 hPa 0,0 mm 8,0 km/h (2 Bft) W-SW 247 0 min 1 UV-I 77 W/m 20,9 km/h (4 Bft)
06.04.2011 10:30 12,6 C 84 % 1025,6 hPa 0,0 mm 8,0 km/h (2 Bft) W-SW 247 0 min 1 UV-I 120 W/m 20,9 km/h (4 Bft)
06.04.2011 10:40 12,7 C 84 % 1025,7 hPa 0,0 mm 8,0 km/h (2 Bft) W-SW 247 0 min 1 UV-I 121 W/m 20,9 km/h (4 Bft)
06.04.2011 10:50 12,8 C 84 % 1025,9 hPa 0,0 mm 8,0 km/h (2 Bft) W 270 0 min 1 UV-I 116 W/m 20,9 km/h (4 Bft)
06.04.2011 11:00 12,8 C 84 % 1025,7 hPa 0,0 mm 9,7 km/h (2 Bft) W-SW 247 0 min 1 UV-I 127 W/m 22,5 km/h (4 Bft)
06.04.2011 11:10 12,9 C 84 % 1026,0 hPa 0,0 mm 8,0 km/h (2 Bft) W-SW 247 0 min 1 UV-I 132 W/m 19,3 km/h (3 Bft)
06.04.2011 11:20 13,0 C 84 % 1026,0 hPa 0,0 mm 8,0 km/h (2 Bft) W 270 0 min 1 UV-I 118 W/m 25,7 km/h (4 Bft)
06.04.2011 11:30 13,0 C 84 % 1025,8 hPa 0,0 mm 8,0 km/h (2 Bft) W-SW 247 0 min 1 UV-I 121 W/m 19,3 km/h (3 Bft)
06.04.2011 11:40 13,1 C 85 % 1026,1 hPa 0,0 mm 9,7 km/h (2 Bft) W-SW 247 0 min 1 UV-I 125 W/m 25,7 km/h (4 Bft)
06.04.2011 11:50 13,2 C 85 % 1026,0 hPa 0,0 mm 9,7 km/h (2 Bft) W-SW 247 0 min 1 UV-I 139 W/m 24,1 km/h (4 Bft)
06.04.2011 12:00 13,3 C 84 % 1026,1 hPa 0,0 mm 8,0 km/h (2 Bft) W-SW 247 0 min 1 UV-I 153 W/m 22,5 km/h (4 Bft)
06.04.2011 12:10 13,4 C 84 % 1026,0 hPa 0,0 mm 8,0 km/h (2 Bft) W-SW 247 0 min 1 UV-I 137 W/m 20,9 km/h (4 Bft)
06.04.2011 12:20 13,5 C 84 % 1026,0 hPa 0,0 mm 8,0 km/h (2 Bft) W 270 0 min 1 UV-I 118 W/m 22,5 km/h (4 Bft)
06.04.2011 12:30 13,6 C 84 % 1026,1 hPa 0,0 mm 9,7 km/h (2 Bft) W-SW 247 0 min 1 UV-I 125 W/m 22,5 km/h (4 Bft)
06.04.2011 12:40 13,7 C 84 % 1026,1 hPa 0,0 mm 6,4 km/h (2 Bft) W-SW 247 0 min 1 UV-I 142 W/m 20,9 km/h (4 Bft)
06.04.2011 12:50 13,9 C 84 % 1026,2 hPa 0,0 mm 9,7 km/h (2 Bft) W 270 0 min 1 UV-I 141 W/m 27,4 km/h (4 Bft)
06.04.2011 13:00 13,9 C 83 % 1026,1 hPa 0,0 mm 9,7 km/h (2 Bft) W-SW 247 0 min 2 UV-I 158 W/m 25,7 km/h (4 Bft)
06.04.2011 13:10 14,1 C 83 % 1026,1 hPa 0,0 mm 6,4 km/h (2 Bft) W-SW 247 0 min 2 UV-I 155 W/m 22,5 km/h (4 Bft)
06.04.2011 13:20 14,2 C 83 % 1026,2 hPa 0,0 mm 8,0 km/h (2 Bft) W-SW 247 0 min 2 UV-I 190 W/m 24,1 km/h (4 Bft)
06.04.2011 13:30 14,3 C 83 % 1026,3 hPa 0,0 mm 9,7 km/h (2 Bft) W 270 0 min 2 UV-I 243 W/m 22,5 km/h (4 Bft)
06.04.2011 13:40 14,5 C 82 % 1026,3 hPa 0,0 mm 6,4 km/h (2 Bft) W 270 0 min 2 UV-I 204 W/m 17,7 km/h (3 Bft)
06.04.2011 13:50 14,6 C 82 % 1026,4 hPa 0,0 mm 4,8 km/h (1 Bft) W 270 0 min 2 UV-I 167 W/m 16,1 km/h (3 Bft)
06.04.2011 14:00 14,7 C 82 % 1026,5 hPa 0,0 mm 4,8 km/h (1 Bft) W-NW 292 0 min 2 UV-I 181 W/m 17,7 km/h (3 Bft)
06.04.2011 14:10 14,8 C 81 % 1026,6 hPa 0,0 mm 3,2 km/h (1 Bft) W-NW 292 0 min 2 UV-I 200 W/m 11,3 km/h (2 Bft)
06.04.2011 14:20 15,1 C 81 % 1026,4 hPa 0,0 mm 3,2 km/h (1 Bft) W 270 0 min 2 UV-I 241 W/m 9,7 km/h (2 Bft)
06.04.2011 14:30 15,2 C 81 % 1026,3 hPa 0,0 mm 3,2 km/h (1 Bft) W 270 0 min 2 UV-I 250 W/m 9,7 km/h (2 Bft)
06.04.2011 14:40 15,7 C 79 % 1026,1 hPa 0,0 mm 3,2 km/h (1 Bft) W 270 0 min 3 UV-I 308 W/m 11,3 km/h (2 Bft)
06.04.2011 14:50 15,8 C 79 % 1026,1 hPa 0,0 mm 3,2 km/h (1 Bft) W 270 10 min 3 UV-I 383 W/m 11,3 km/h (2 Bft)
06.04.2011 15:00 16,3 C 78 % 1025,9 hPa 0,0 mm 4,8 km/h (1 Bft) W-SW 247 10 min 3 UV-I 429 W/m 11,3 km/h (2 Bft)
06.04.2011 15:10 17,1 C 76 % 1026,0 hPa 0,0 mm 4,8 km/h (1 Bft) W 270 10 min 4 UV-I 708 W/m 19,3 km/h (3 Bft)
06.04.2011 15:20 17,3 C 74 % 1025,8 hPa 0,0 mm 6,4 km/h (2 Bft) W 270 10 min 3 UV-I 751 W/m 19,3 km/h (3 Bft)
06.04.2011 15:30 17,5 C 74 % 1025,7 hPa 0,0 mm 4,8 km/h (1 Bft) W 270 10 min 4 UV-I 649 W/m 16,1 km/h (3 Bft)
06.04.2011 15:40 18,2 C 71 % 1025,6 hPa 0,0 mm 6,4 km/h (2 Bft) W-SW 247 10 min 4 UV-I 631 W/m 16,1 km/h (3 Bft)
06.04.2011 15:50 18,6 C 70 % 1025,3 hPa 0,0 mm 6,4 km/h (2 Bft) W-SW 247 10 min 3 UV-I 612 W/m 19,3 km/h (3 Bft)
06.04.2011 16:00 19,1 C 69 % 1025,5 hPa 0,0 mm 6,4 km/h (2 Bft) W 270 10 min 3 UV-I 610 W/m 20,9 km/h (4 Bft)
06.04.2011 16:10 19,4 C 68 % 1025,3 hPa 0,0 mm 4,8 km/h (1 Bft) W-SW 247 10 min 3 UV-I 619 W/m 19,3 km/h (3 Bft)
06.04.2011 16:20 19,7 C 68 % 1025,1 hPa 0,0 mm 4,8 km/h (1 Bft) W-SW 247 10 min 3 UV-I 547 W/m 14,5 km/h (3 Bft)
06.04.2011 16:30 19,8 C 67 % 1025,2 hPa 0,0 mm 8,0 km/h (2 Bft) W 270 10 min 2 UV-I 529 W/m 17,7 km/h (3 Bft)
06.04.2011 16:40 19,9 C 67 % 1025,1 hPa 0,0 mm 4,8 km/h (1 Bft) W 270 10 min 2 UV-I 512 W/m 19,3 km/h (3 Bft)
06.04.2011 16:50 20,0 C 67 % 1025,1 hPa 0,0 mm 6,4 km/h (2 Bft) W 270 10 min 2 UV-I 475 W/m 19,3 km/h (3 Bft)
06.04.2011 17:00 20,3 C 66 % 1025,0 hPa 0,0 mm 6,4 km/h (2 Bft) W 270 10 min 2 UV-I 540 W/m 17,7 km/h (3 Bft)
06.04.2011 17:10 20,4 C 65 % 1024,9 hPa 0,0 mm 4,8 km/h (1 Bft) W 270 10 min 2 UV-I 452 W/m 16,1 km/h (3 Bft)
06.04.2011 17:20 20,6 C 65 % 1024,9 hPa 0,0 mm 4,8 km/h (1 Bft) W 270 10 min 2 UV-I 450 W/m 14,5 km/h (3 Bft)
06.04.2011 17:30 20,7 C 64 % 1024,9 hPa 0,0 mm 8,0 km/h (2 Bft) W 270 10 min 1 UV-I 406 W/m 17,7 km/h (3 Bft)
06.04.2011 17:40 20,7 C 63 % 1024,9 hPa 0,0 mm 6,4 km/h (2 Bft) W-SW 247 10 min 1 UV-I 352 W/m 14,5 km/h (3 Bft)
06.04.2011 17:50 20,7 C 65 % 1024,9 hPa 0,0 mm 6,4 km/h (2 Bft) W 270 10 min 1 UV-I 302 W/m 24,1 km/h (4 Bft)
06.04.2011 18:00 20,7 C 64 % 1024,9 hPa 0,0 mm 4,8 km/h (1 Bft) W 270 10 min 1 UV-I 279 W/m 17,7 km/h (3 Bft)
06.04.2011 18:10 20,8 C 63 % 1024,9 hPa 0,0 mm 4,8 km/h (1 Bft) W 270 10 min 1 UV-I 258 W/m 17,7 km/h (3 Bft)
06.04.2011 18:20 20,6 C 64 % 1024,9 hPa 0,0 mm 8,0 km/h (2 Bft) W 270 10 min 1 UV-I 216 W/m 20,9 km/h (4 Bft)
06.04.2011 18:30 20,3 C 65 % 1024,8 hPa 0,0 mm 4,8 km/h (1 Bft) W 270 10 min 1 UV-I 185 W/m 9,7 km/h (2 Bft)
06.04.2011 18:40 20,4 C 65 % 1024,8 hPa 0,0 mm 4,8 km/h (1 Bft) W 270 10 min 1 UV-I 193 W/m 11,3 km/h (2 Bft)
06.04.2011 18:50 20,4 C 66 % 1024,8 hPa 0,0 mm 1,6 km/h (1 Bft) W-SW 247 10 min 1 UV-I 149 W/m 9,7 km/h (2 Bft)
06.04.2011 19:00 20,2 C 67 % 1024,8 hPa 0,0 mm 3,2 km/h (1 Bft) W-SW 247 10 min 1 UV-I 125 W/m 11,3 km/h (2 Bft)
06.04.2011 19:10 19,9 C 67 % 1024,8 hPa 0,0 mm 3,2 km/h (1 Bft) W-SW 247 10 min 0 UV-I 91 W/m 11,3 km/h (2 Bft)
06.04.2011 19:20 19,7 C 68 % 1025,0 hPa 0,0 mm 1,6 km/h (1 Bft) W 270 10 min 0 UV-I 77 W/m 9,7 km/h (2 Bft)
06.04.2011 19:30 19,4 C 70 % 1025,0 hPa 0,0 mm 1,6 km/h (1 Bft) W 270 10 min 0 UV-I 51 W/m 8,0 km/h (2 Bft)
06.04.2011 19:40 19,2 C 70 % 1025,1 hPa 0,0 mm 0,2 km/h (0 Bft) W 271 10 min 0 UV-I 35 W/m 1,6 km/h (1 Bft)
06.04.2011 19:50 19,1 C 71 % 1025,0 hPa 0,0 mm 0,0 km/h (0 Bft) W 270 10 min 0 UV-I 32 W/m 3,2 km/h (1 Bft)
06.04.2011 20:00 18,7 C 73 % 1025,0 hPa 0,0 mm 0,0 km/h (0 Bft) W 270 0 min 0 UV-I 16 W/m 3,2 km/h (1 Bft)
06.04.2011 20:10 18,3 C 74 % 1024,8 hPa 0,0 mm 0,0 km/h (0 Bft) W 270 0 min 0 UV-I 5 W/m 1,6 km/h (1 Bft)
06.04.2011 20:20 17,9 C 76 % 1024,8 hPa 0,0 mm 0,0 km/h (0 Bft) W 270 0 min 0 UV-I 0 W/m 1,6 km/h (1 Bft)
06.04.2011 20:30 17,6 C 77 % 1024,9 hPa 0,0 mm 0,0 km/h (0 Bft) N 0 0 min 0 UV-I 0 W/m 0,0 km/h (0 Bft)
06.04.2011 20:40 16,9 C 79 % 1025,1 hPa 0,0 mm 0,0 km/h (0 Bft) N 0 0 min 0 UV-I 0 W/m 0,0 km/h (0 Bft)
06.04.2011 20:50 16,2 C 81 % 1025,1 hPa 0,0 mm 0,0 km/h (0 Bft) N 0 0 min 0 UV-I 0 W/m 0,0 km/h (0 Bft)
06.04.2011 21:00 15,7 C 82 % 1025,2 hPa 0,0 mm 0,0 km/h (0 Bft) N 0 0 min 0 UV-I 0 W/m 0,0 km/h (0 Bft)
06.04.2011 21:10 15,4 C 83 % 1025,2 hPa 0,0 mm 0,0 km/h (0 Bft) W-SW 247 0 min 0 UV-I 0 W/m 1,6 km/h (1 Bft)
06.04.2011 21:20 15,4 C 83 % 1025,2 hPa 0,0 mm 0,0 km/h (0 Bft) N 0 0 min 0 UV-I 0 W/m 0,0 km/h (0 Bft)
06.04.2011 21:30 15,1 C 84 % 1025,1 hPa 0,0 mm 0,0 km/h (0 Bft) N 0 0 min 0 UV-I 0 W/m 0,0 km/h (0 Bft)
06.04.2011 21:40 14,8 C 85 % 1025,1 hPa 0,0 mm 0,0 km/h (0 Bft) N 0 0 min 0 UV-I 0 W/m 0,0 km/h (0 Bft)
06.04.2011 21:50 14,8 C 85 % 1024,9 hPa 0,0 mm 0,0 km/h (0 Bft) W-SW 247 0 min 0 UV-I 0 W/m 1,6 km/h (1 Bft)
06.04.2011 22:00 14,7 C 85 % 1025,0 hPa 0,0 mm 0,0 km/h (0 Bft) N 0 0 min 0 UV-I 0 W/m 0,0 km/h (0 Bft)
06.04.2011 22:10 14,4 C 86 % 1025,0 hPa 0,0 mm 0,0 km/h (0 Bft) N 0 0 min 0 UV-I 0 W/m 0,0 km/h (0 Bft)
06.04.2011 22:20 14,3 C 86 % 1024,9 hPa 0,0 mm 0,0 km/h (0 Bft) N 0 0 min 0 UV-I 0 W/m 0,0 km/h (0 Bft)
06.04.2011 22:30 14,3 C 86 % 1024,7 hPa 0,0 mm 0,0 km/h (0 Bft) W-SW 247 0 min 0 UV-I 0 W/m 1,6 km/h (1 Bft)
06.04.2011 22:40 14,3 C 85 % 1024,6 hPa 0,0 mm 0,0 km/h (0 Bft) N 0 0 min 0 UV-I 0 W/m 0,0 km/h (0 Bft)
06.04.2011 22:50 13,9 C 86 % 1024,4 hPa 0,0 mm 0,0 km/h (0 Bft) N 0 0 min 0 UV-I 0 W/m 0,0 km/h (0 Bft)
06.04.2011 23:00 13,5 C 87 % 1024,4 hPa 0,0 mm 0,0 km/h (0 Bft) N 0 0 min 0 UV-I 0 W/m 0,0 km/h (0 Bft)
06.04.2011 23:10 13,3 C 87 % 1024,4 hPa 0,0 mm 0,0 km/h (0 Bft) W-SW 247 0 min 0 UV-I 0 W/m 1,6 km/h (1 Bft)
06.04.2011 23:20 13,6 C 85 % 1024,4 hPa 0,0 mm 0,0 km/h (0 Bft) W-SW 247 0 min 0 UV-I 0 W/m 1,6 km/h (1 Bft)
06.04.2011 23:30 13,4 C 85 % 1024,4 hPa 0,0 mm 0,0 km/h (0 Bft) W-SW 247 0 min 0 UV-I 0 W/m 1,6 km/h (1 Bft)
06.04.2011 23:40 12,8 C 87 % 1024,3 hPa 0,0 mm 0,0 km/h (0 Bft) N 0 0 min 0 UV-I 0 W/m 0,0 km/h (0 Bft)
06.04.2011 23:50 12,4 C 87 % 1024,4 hPa 0,0 mm 0,0 km/h (0 Bft) N 0 0 min 0 UV-I 0 W/m 0,0 km/h (0 Bft)
_ Min-Zeit 00:00 17:40 05:00 - 19:50 - - - - - 20:30
Minimum _ 10,1 C 63 % 1024,1 hPa - 0,0 km/h (0 Bft) - - - - - 0,0 km/h (0 Bft)
_ Max-Zeit 17:30 23:00 14:10 00:00 10:10 - - 14:50 15:10 15:20 12:50
Maximum _ 20,8 C 87 % 1026,6 hPa 0,0 mm 9,7 km/h
W (2 Bft)
- - 10 min 4 UV-I 751 W/m 27,4 km/h
W (4 Bft)
Durchschnitt _ 13,9 C 80 % 1025,1 hPa #0,0 mm 4,2 km/h (1 Bft) W-SW - #5:10 h 2 UV-I 219 W/m 13,2 km/h (3 Bft)